createdAt,value
2019-04-22T00:01:50.062Z,4.37
2019-04-22T00:04:29.967Z,4.70
2019-04-22T00:07:12.452Z,4.60
2019-04-22T00:09:44.464Z,4.50
2019-04-22T00:12:16.275Z,6.30
2019-04-22T00:14:28.309Z,6.33
2019-04-22T00:17:08.625Z,3.33
2019-04-22T00:19:36.036Z,3.83
2019-04-22T00:22:08.035Z,5.97
2019-04-22T00:24:30.695Z,5.97
2019-04-22T00:27:05.228Z,3.80
2019-04-22T00:29:49.341Z,3.23
2019-04-22T00:32:05.008Z,4.60
2019-04-22T00:34:35.667Z,5.03
2019-04-22T00:37:02.299Z,5.07
2019-04-22T00:39:39.849Z,4.70
2019-04-22T00:42:01.857Z,5.90
2019-04-22T00:44:35.442Z,5.17
2019-04-22T00:47:05.697Z,5.27
2019-04-22T00:52:03.714Z,4.40
2019-04-22T00:54:32.908Z,5.23
2019-04-22T00:56:59.216Z,8.37
2019-04-22T00:59:23.351Z,5.87
2019-04-22T01:01:58.871Z,4.10
2019-04-22T01:04:27.977Z,4.33
2019-04-22T01:06:45.611Z,4.70
2019-04-22T01:09:17.442Z,4.83
2019-04-22T01:11:47.167Z,6.20
2019-04-22T01:14:17.770Z,4.77
2019-04-22T01:16:42.936Z,4.77
2019-04-22T01:19:08.598Z,5.13
2019-04-22T01:21:42.181Z,3.83
2019-04-22T01:24:05.836Z,5.03
2019-04-22T01:26:30.103Z,5.10
2019-04-22T01:28:59.883Z,3.90
2019-04-22T01:31:19.151Z,6.40
2019-04-22T01:33:47.655Z,6.00
2019-04-22T01:36:30.539Z,5.30
2019-04-22T01:39:02.010Z,5.43
2019-04-22T01:41:32.424Z,4.57
2019-04-22T01:44:05.765Z,5.20
2019-04-22T01:46:32.349Z,4.83
2019-04-22T01:49:01.426Z,5.37
2019-04-22T01:51:35.452Z,6.60
2019-04-22T01:53:57.957Z,5.30
2019-04-22T01:56:24.501Z,5.83
2019-04-22T01:58:44.203Z,3.90
2019-04-22T02:01:27.501Z,3.97
2019-04-22T02:03:46.777Z,5.80
2019-04-22T02:06:28.292Z,5.73
2019-04-22T02:11:24.160Z,5.67
2019-04-22T02:13:44.733Z,5.60
2019-04-22T02:16:16.164Z,3.83
2019-04-22T02:21:07.386Z,5.63
2019-04-22T02:28:42.535Z,5.47
2019-04-22T02:38:51.326Z,6.67
2019-04-22T02:43:49.217Z,3.13
2019-04-22T02:48:45.952Z,3.53
2019-04-22T02:51:02.509Z,3.90
2019-04-22T02:56:04.917Z,5.60
2019-04-22T02:58:44.933Z,5.43
2019-04-22T03:01:01.303Z,5.73
2019-04-22T03:03:31.180Z,7.00
2019-04-22T03:06:05.311Z,5.33
2019-04-22T03:08:25.329Z,6.17
2019-04-22T03:10:56.663Z,5.00
2019-04-22T03:15:50.923Z,4.53
2019-04-22T03:18:25.722Z,6.63
2019-04-22T03:20:50.082Z,10.10
2019-04-22T03:28:10.219Z,6.03
2019-04-22T03:33:16.319Z,5.13
2019-04-22T03:38:32.848Z,4.57
2019-04-22T03:40:54.839Z,5.50
2019-04-22T03:45:37.832Z,5.90
2019-04-22T03:48:02.787Z,4.33
2019-04-22T03:55:38.378Z,7.90
2019-04-22T04:00:35.563Z,5.80
2019-04-22T04:10:35.479Z,8.10
2019-04-22T04:22:58.997Z,5.63
2019-04-22T04:28:10.598Z,5.60
2019-04-22T04:30:29.874Z,4.67
2019-04-22T04:35:25.381Z,6.60
2019-04-22T04:42:46.402Z,5.70
2019-04-22T04:47:49.332Z,5.23
2019-04-22T04:55:17.537Z,5.07
2019-04-22T04:57:43.498Z,5.63
2019-04-22T05:00:32.760Z,9.60
2019-04-22T05:02:44.869Z,4.47
2019-04-22T05:07:36.185Z,5.27
2019-04-22T05:12:52.994Z,7.30
2019-04-22T05:15:00.815Z,6.10
2019-04-22T05:17:25.290Z,4.33
2019-04-22T05:19:58.267Z,4.93
2019-04-22T05:22:21.009Z,5.73
2019-04-22T05:24:56.292Z,4.57
2019-04-22T05:27:20.475Z,7.27
2019-04-22T05:30:00.642Z,5.77
2019-04-22T05:32:22.773Z,5.03
2019-04-22T05:34:40.148Z,7.83
2019-04-22T05:37:11.274Z,4.87
2019-04-22T05:39:41.539Z,4.97
2019-04-22T05:42:10.425Z,6.27
2019-04-22T05:44:34.416Z,6.67
2019-04-22T05:47:02.954Z,8.27
2019-04-22T05:49:31.270Z,4.37
2019-04-22T05:51:54.625Z,4.10
2019-04-22T05:54:27.335Z,7.20
2019-04-22T05:56:53.343Z,4.63
2019-04-22T05:59:24.437Z,6.93
2019-04-22T06:02:01.411Z,4.10
2019-04-22T06:04:25.643Z,5.37
2019-04-22T06:06:47.951Z,5.27
2019-04-22T06:09:26.070Z,3.73
2019-04-22T06:11:50.939Z,3.87
2019-04-22T06:14:20.042Z,4.10
2019-04-22T06:16:53.974Z,3.33
2019-04-22T06:19:21.498Z,6.57
2019-04-22T06:22:07.138Z,3.77
2019-04-22T06:24:23.607Z,4.93
2019-04-22T06:26:51.841Z,5.23
2019-04-22T06:29:16.611Z,4.33
2019-04-22T06:32:05.505Z,3.27
2019-04-22T06:34:17.798Z,3.17
2019-04-22T06:36:45.183Z,3.50
2019-04-22T06:39:14.304Z,3.47
2019-04-22T06:41:43.645Z,3.23
2019-04-22T06:44:16.164Z,5.23
2019-04-22T06:46:37.835Z,3.97
2019-04-22T06:49:03.139Z,2.53
2019-04-22T06:51:33.083Z,4.07
2019-04-22T06:54:02.889Z,4.30
2019-04-22T06:56:27.596Z,7.10
2019-04-22T06:58:59.107Z,7.30
2019-04-22T07:03:53.939Z,5.03
2019-04-22T07:06:33.439Z,4.20
2019-04-22T07:11:21.788Z,5.30
2019-04-22T07:13:55.292Z,5.13
2019-04-22T07:16:18.612Z,2.60
2019-04-22T07:19:02.438Z,4.37
2019-04-22T07:21:12.430Z,3.70
2019-04-22T07:26:08.702Z,3.43
2019-04-22T07:28:37.239Z,2.70
2019-04-22T07:31:10.286Z,5.23
2019-04-22T07:33:43.858Z,4.47
2019-04-22T07:38:31.085Z,3.53
2019-04-22T07:41:00.559Z,5.00
2019-04-22T07:46:00.011Z,2.43
2019-04-22T07:48:48.123Z,3.47
2019-04-22T07:51:02.875Z,4.17
2019-04-22T07:53:23.019Z,3.40
2019-04-22T07:56:01.372Z,2.73
2019-04-22T07:58:24.140Z,4.37
2019-04-22T08:00:55.941Z,2.03
2019-04-22T08:03:31.527Z,5.20
2019-04-22T08:06:02.569Z,3.50
2019-04-22T08:10:48.629Z,5.53
2019-04-22T08:13:17.230Z,2.23
2019-04-22T08:15:52.453Z,3.57
2019-04-22T08:18:26.081Z,2.43
2019-04-22T08:20:42.762Z,2.30
2019-04-22T08:25:40.222Z,3.63
2019-04-22T08:28:13.368Z,3.07
2019-04-22T08:30:40.770Z,2.50
2019-04-22T08:33:09.671Z,4.37
2019-04-22T08:35:52.250Z,2.37
2019-04-22T08:38:06.951Z,2.40
2019-04-22T08:40:36.385Z,4.10
2019-04-22T08:43:15.583Z,2.83
2019-04-22T08:45:38.446Z,2.03
2019-04-22T08:48:01.808Z,2.67
2019-04-22T08:50:35.059Z,2.57
2019-04-22T08:53:05.929Z,3.40
2019-04-22T08:55:33.975Z,2.30
2019-04-22T08:58:16.539Z,2.47
2019-04-22T09:00:30.962Z,5.20
2019-04-22T09:02:59.497Z,2.43
2019-04-22T09:05:42.434Z,2.43
2019-04-22T09:07:52.749Z,1.63
2019-04-22T09:10:25.696Z,1.60
2019-04-22T09:12:57.786Z,2.27
2019-04-22T09:15:20.722Z,2.53
2019-04-22T09:17:47.829Z,2.60
2019-04-22T09:20:18.375Z,2.23
2019-04-22T09:22:41.065Z,2.13
2019-04-22T09:25:22.175Z,1.80
2019-04-22T09:27:45.897Z,1.33
2019-04-22T09:30:17.008Z,1.60
2019-04-22T09:32:44.921Z,3.90
2019-04-22T09:35:09.450Z,1.83
2019-04-22T09:37:42.083Z,1.30
2019-04-22T09:42:39.758Z,2.00
2019-04-22T09:45:05.761Z,2.10
2019-04-22T09:47:33.692Z,2.10
2019-04-22T09:50:03.799Z,1.27
2019-04-22T09:52:32.953Z,3.20
2019-04-22T09:55:08.248Z,1.77
2019-04-22T09:57:24.963Z,2.90
2019-04-22T10:02:39.541Z,1.90
2019-04-22T10:05:02.111Z,3.13
2019-04-22T10:07:21.009Z,1.37
2019-04-22T10:09:59.673Z,3.33
2019-04-22T10:12:26.356Z,1.77
2019-04-22T10:14:52.657Z,1.53
2019-04-22T10:17:15.532Z,2.50
2019-04-22T10:22:19.268Z,1.27
2019-04-22T10:24:39.271Z,3.10
2019-04-22T10:27:07.758Z,1.80
2019-04-22T10:29:48.044Z,2.00
2019-04-22T10:32:06.761Z,2.10
2019-04-22T10:34:26.344Z,2.50
2019-04-22T10:36:44.022Z,1.47
2019-04-22T10:39:08.806Z,3.20
2019-04-22T10:41:36.648Z,2.53
2019-04-22T10:44:03.733Z,1.73
2019-04-22T10:46:30.643Z,1.40
2019-04-22T10:48:57.986Z,1.47
2019-04-22T10:51:24.880Z,1.13
2019-04-22T10:53:51.580Z,1.10
2019-04-22T10:56:18.907Z,2.83
2019-04-22T10:58:46.664Z,2.73
2019-04-22T11:01:13.742Z,1.60
2019-04-22T11:03:41.608Z,1.67
2019-04-22T11:06:09.658Z,1.50
2019-04-22T11:08:44.531Z,1.32
2019-04-22T11:11:18.975Z,1.57
2019-04-22T11:13:35.650Z,1.20
2019-04-22T11:16:03.495Z,1.75
2019-04-22T11:18:31.557Z,3.00
2019-04-22T11:20:59.754Z,1.50
2019-04-22T11:23:27.037Z,1.90
2019-04-22T11:25:54.097Z,1.60
2019-04-22T11:28:20.912Z,1.77
2019-04-22T11:30:48.233Z,2.07
2019-04-22T11:33:16.251Z,1.43
2019-04-22T11:35:43.774Z,2.00
2019-04-22T11:38:10.823Z,1.70
2019-04-22T11:40:40.586Z,2.90
2019-04-22T11:43:06.286Z,3.13
2019-04-22T11:45:33.232Z,2.17
2019-04-22T11:48:01.398Z,2.30
2019-04-22T11:50:30.080Z,3.47
2019-04-22T11:53:00.769Z,1.40
2019-04-22T11:55:28.740Z,3.60
2019-04-22T11:57:56.209Z,2.23
2019-04-22T12:00:30.747Z,2.13
2019-04-22T12:02:58.825Z,2.00
2019-04-22T12:05:26.007Z,2.17
2019-04-22T12:07:53.185Z,2.33
2019-04-22T12:10:29.625Z,2.97
2019-04-22T12:12:52.008Z,2.17
2019-04-22T12:15:20.351Z,2.00
2019-04-22T12:17:47.145Z,1.87
2019-04-22T12:20:16.033Z,2.20
2019-04-22T12:22:43.047Z,2.77
2019-04-22T12:25:12.375Z,2.17
2019-04-22T12:27:39.150Z,1.70
2019-04-22T12:30:06.906Z,2.60
2019-04-22T12:32:33.608Z,4.23
2019-04-22T12:35:01.804Z,3.37
2019-04-22T12:37:39.899Z,3.13
2019-04-22T12:40:00.365Z,1.57
2019-04-22T12:42:27.282Z,2.47
2019-04-22T12:44:54.218Z,2.17
2019-04-22T12:47:22.204Z,2.03
2019-04-22T12:49:56.135Z,1.80
2019-04-22T12:52:26.662Z,2.07
2019-04-22T12:54:46.927Z,1.80
2019-04-22T12:57:14.709Z,3.00
2019-04-22T12:59:41.870Z,2.30
2019-04-22T13:02:09.162Z,2.83
2019-04-22T13:04:36.263Z,1.53
2019-04-22T13:07:03.907Z,1.90
2019-04-22T13:09:31.605Z,2.00
2019-04-22T13:11:59.240Z,2.30
2019-04-22T13:14:27.235Z,2.57
2019-04-22T13:16:55.089Z,1.50
2019-04-22T13:19:23.496Z,2.30
2019-04-22T13:21:51.027Z,1.77
2019-04-22T13:24:19.850Z,1.10
2019-04-22T13:26:46.445Z,1.80
2019-04-22T13:29:14.652Z,1.43
2019-04-22T13:31:42.531Z,1.30
2019-04-22T13:34:10.526Z,1.57
2019-04-22T13:36:40.078Z,1.80
2019-04-22T13:39:07.100Z,1.63
2019-04-22T13:44:02.533Z,1.70
2019-04-22T13:46:31.723Z,2.87
2019-04-22T13:49:25.575Z,2.73
2019-04-22T13:52:04.171Z,1.60
2019-04-22T13:53:53.454Z,1.43
2019-04-22T13:56:43.151Z,1.47
2019-04-22T13:59:04.594Z,2.20
2019-04-22T14:01:24.856Z,1.60
2019-04-22T14:04:10.278Z,1.80
2019-04-22T14:06:38.656Z,1.87
2019-04-22T14:09:07.463Z,2.37
2019-04-22T14:11:41.589Z,3.60
2019-04-22T14:14:02.996Z,2.00
2019-04-22T14:16:31.026Z,1.57
2019-04-22T14:18:58.188Z,1.77
2019-04-22T14:21:25.186Z,1.83
2019-04-22T14:23:53.010Z,1.83
2019-04-22T14:26:19.746Z,1.90
2019-04-22T14:28:47.984Z,1.00
2019-04-22T14:31:14.896Z,1.10
2019-04-22T14:33:46.296Z,1.10
2019-04-22T14:36:11.682Z,3.17
2019-04-22T14:38:39.724Z,1.30
2019-04-22T14:41:08.269Z,3.53
2019-04-22T14:44:23.316Z,1.30
2019-04-22T14:46:27.840Z,1.30
2019-04-22T14:48:57.653Z,1.60
2019-04-22T14:51:22.362Z,1.50
2019-04-22T14:53:44.851Z,2.70
2019-04-22T14:55:58.463Z,2.03
2019-04-22T14:58:26.749Z,1.67
2019-04-22T15:00:55.179Z,1.80
2019-04-22T15:03:22.038Z,1.50
2019-04-22T15:05:48.616Z,1.50
2019-04-22T15:08:15.447Z,1.17
2019-04-22T15:10:42.366Z,0.97
2019-04-22T15:13:09.547Z,2.63
2019-04-22T15:15:52.802Z,1.40
2019-04-22T15:18:53.788Z,2.00
2019-04-22T15:21:22.841Z,2.23
2019-04-22T15:23:50.778Z,1.70
2019-04-22T15:26:17.579Z,1.47
2019-04-22T15:28:45.197Z,1.90
2019-04-22T15:31:13.268Z,1.13
2019-04-22T15:33:41.529Z,1.40
2019-04-22T15:36:09.913Z,2.00
2019-04-22T15:38:36.671Z,1.30
2019-04-22T15:41:04.889Z,2.87
2019-04-22T15:43:35.075Z,2.43
2019-04-22T15:46:03.688Z,1.50
2019-04-22T15:48:30.952Z,1.27
2019-04-22T15:50:58.467Z,1.50
2019-04-22T15:53:25.477Z,1.70
2019-04-22T15:55:52.557Z,2.70
2019-04-22T15:58:19.747Z,1.93
2019-04-22T16:00:57.667Z,3.10
2019-04-22T16:03:16.345Z,2.93
2019-04-22T16:05:44.119Z,3.67
2019-04-22T16:08:11.014Z,2.50
2019-04-22T16:10:37.959Z,1.30
2019-04-22T16:13:11.239Z,1.67
2019-04-22T16:15:34.332Z,1.30
2019-04-22T16:18:03.341Z,3.20
2019-04-22T16:20:30.052Z,3.40
2019-04-22T16:23:22.362Z,1.63
2019-04-22T16:25:55.472Z,1.93
2019-04-22T16:28:22.060Z,2.13
2019-04-22T16:30:48.959Z,1.80
2019-04-22T16:33:17.209Z,1.97
2019-04-22T16:35:44.954Z,3.47
2019-04-22T16:38:12.870Z,2.83
2019-04-22T16:40:40.884Z,3.10
2019-04-22T16:43:09.661Z,2.30
2019-04-22T16:45:36.248Z,2.27
2019-04-22T16:48:04.297Z,2.33
2019-04-22T16:50:31.028Z,3.77
2019-04-22T16:52:57.913Z,2.03
2019-04-22T16:55:24.812Z,3.13
2019-04-22T16:57:52.574Z,2.20
2019-04-22T17:00:20.641Z,2.90
2019-04-22T17:02:58.573Z,2.13
2019-04-22T17:05:43.360Z,1.80
2019-04-22T17:08:10.291Z,1.50
2019-04-22T17:10:37.810Z,1.47
2019-04-22T17:13:11.014Z,1.83
2019-04-22T17:15:33.441Z,1.37
2019-04-22T17:18:01.280Z,1.53
2019-04-22T17:20:29.224Z,2.33
2019-04-22T17:22:55.955Z,2.27
2019-04-22T17:25:22.700Z,2.40
2019-04-22T17:27:49.741Z,3.40
2019-04-22T17:30:16.728Z,1.40
2019-04-22T17:32:46.785Z,2.37
2019-04-22T17:35:12.468Z,2.23
2019-04-22T17:37:40.997Z,3.47
2019-04-22T17:40:24.409Z,1.87
2019-04-22T17:42:57.878Z,2.33
2019-04-22T17:45:41.914Z,2.23
2019-04-22T17:48:31.214Z,4.37
2019-04-22T17:51:03.521Z,2.87
2019-04-22T17:53:26.123Z,3.70
2019-04-22T17:55:57.501Z,2.23
2019-04-22T17:58:31.111Z,2.03
2019-04-22T18:00:52.185Z,2.60
2019-04-22T18:03:13.179Z,2.13
2019-04-22T18:05:38.360Z,4.03
2019-04-22T18:08:20.426Z,1.87
2019-04-22T18:10:40.728Z,2.63
2019-04-22T18:13:20.407Z,1.57
2019-04-22T18:15:43.846Z,3.87
2019-04-22T18:18:12.322Z,2.83
2019-04-22T18:20:38.160Z,2.13
2019-04-22T18:22:56.950Z,1.60
2019-04-22T18:25:35.133Z,2.37
2019-04-22T18:28:13.801Z,3.43
2019-04-22T18:30:30.062Z,2.67
2019-04-22T18:33:07.495Z,1.93
2019-04-22T18:35:35.263Z,2.03
2019-04-22T18:38:07.686Z,3.07
2019-04-22T18:40:37.074Z,3.37
2019-04-22T18:43:04.801Z,2.50
2019-04-22T18:45:39.805Z,1.80
2019-04-22T18:47:54.618Z,2.67
2019-04-22T18:50:36.984Z,3.03
2019-04-22T18:53:24.542Z,4.30
2019-04-22T18:55:55.580Z,2.10
2019-04-22T18:58:22.833Z,2.70
2019-04-22T19:00:39.660Z,2.70
2019-04-22T19:03:15.611Z,3.43
2019-04-22T19:06:00.773Z,2.73
2019-04-22T19:08:29.132Z,2.67
2019-04-22T19:11:03.587Z,2.03
2019-04-22T19:16:09.982Z,3.47
2019-04-22T19:18:29.818Z,3.77
2019-04-22T19:20:58.098Z,4.97
2019-04-22T19:23:17.928Z,2.57
2019-04-22T19:25:43.844Z,3.97
2019-04-22T19:28:23.906Z,1.90
2019-04-22T19:30:47.742Z,2.43
2019-04-22T19:33:18.863Z,1.73
2019-04-22T19:35:35.098Z,2.73
2019-04-22T19:38:04.867Z,2.50
2019-04-22T19:40:52.857Z,1.50
2019-04-22T19:43:10.374Z,1.83
2019-04-22T19:45:37.749Z,1.77
2019-04-22T19:48:16.653Z,3.93
2019-04-22T19:50:45.561Z,3.70
2019-04-22T19:53:15.524Z,2.80
2019-04-22T19:55:39.239Z,4.17
2019-04-22T19:58:05.514Z,3.40
2019-04-22T20:00:41.959Z,3.60
2019-04-22T20:03:42.806Z,2.77
2019-04-22T20:06:13.084Z,2.60
2019-04-22T20:08:42.356Z,2.10
2019-04-22T20:11:13.308Z,2.60
2019-04-22T20:13:44.242Z,2.40
2019-04-22T20:15:57.510Z,3.77
2019-04-22T20:18:39.432Z,1.57
2019-04-22T20:21:04.592Z,3.23
2019-04-22T20:23:25.696Z,2.60
2019-04-22T20:25:51.410Z,2.80
2019-04-22T20:28:31.080Z,2.63
2019-04-22T20:30:56.233Z,2.50
2019-04-22T20:33:29.131Z,2.73
2019-04-22T20:35:58.222Z,3.27
2019-04-22T20:38:28.067Z,3.10
2019-04-22T20:40:49.160Z,2.07
2019-04-22T20:43:28.922Z,2.83
2019-04-22T20:45:51.165Z,3.53
2019-04-22T20:48:07.907Z,2.63
2019-04-22T20:50:48.140Z,2.70
2019-04-22T20:53:21.410Z,3.37
2019-04-22T20:55:42.199Z,3.27
2019-04-22T20:58:11.663Z,3.20
2019-04-22T21:00:36.546Z,5.13
2019-04-22T21:02:59.826Z,3.23
2019-04-22T21:05:30.233Z,2.30
2019-04-22T21:08:11.433Z,5.80
2019-04-22T21:10:31.385Z,3.40
2019-04-22T21:13:01.755Z,2.57
2019-04-22T21:15:36.912Z,2.87
2019-04-22T21:18:00.830Z,4.20
2019-04-22T21:20:36.505Z,6.57
2019-04-22T21:23:00.066Z,2.70
2019-04-22T21:25:24.246Z,2.50
2019-04-22T21:28:06.620Z,2.97
2019-04-22T21:30:26.420Z,4.00
2019-04-22T21:32:53.717Z,2.53
2019-04-22T21:35:44.083Z,3.43
2019-04-22T21:38:03.035Z,3.07
2019-04-22T21:40:27.407Z,3.10
2019-04-22T21:42:59.835Z,2.60
2019-04-22T21:45:21.718Z,3.07
2019-04-22T21:48:04.987Z,4.03
2019-04-22T21:50:44.810Z,5.50
2019-04-22T21:53:01.187Z,4.90
2019-04-22T21:55:23.856Z,3.83
2019-04-22T21:58:19.524Z,3.60
2019-04-22T22:01:16.972Z,2.77
2019-04-22T22:03:38.126Z,4.20
2019-04-22T22:05:58.792Z,3.07
2019-04-22T22:08:40.365Z,2.60
2019-04-22T22:11:03.691Z,4.67
2019-04-22T22:13:34.512Z,4.67
2019-04-22T22:15:56.360Z,10.33
2019-04-22T22:18:23.480Z,2.83
2019-04-22T22:21:19.179Z,5.20
2019-04-22T22:23:31.828Z,3.00
2019-04-22T22:25:55.766Z,3.77
2019-04-22T22:28:40.292Z,4.60
2019-04-22T22:31:02.013Z,3.83
2019-04-22T22:33:24.183Z,5.80
2019-04-22T22:35:53.301Z,3.43
2019-04-22T22:38:19.632Z,4.57
2019-04-22T22:40:35.762Z,3.80
2019-04-22T22:43:05.418Z,7.73
2019-04-22T22:45:37.427Z,6.73
2019-04-22T22:48:23.822Z,3.57
2019-04-22T22:50:44.608Z,3.87
2019-04-22T22:53:21.242Z,4.80
2019-04-22T22:55:47.701Z,5.63
2019-04-22T22:58:16.206Z,4.07
2019-04-22T23:00:39.686Z,4.27
2019-04-22T23:05:45.336Z,4.07
2019-04-22T23:08:07.738Z,6.33
2019-04-22T23:10:39.976Z,4.43
2019-04-22T23:13:20.492Z,5.83
2019-04-22T23:15:27.796Z,4.23
2019-04-22T23:17:41.449Z,4.23
2019-04-22T23:20:09.702Z,4.57
2019-04-22T23:23:02.784Z,6.53
2019-04-22T23:25:32.822Z,5.60
2019-04-22T23:28:12.537Z,6.07
2019-04-22T23:30:51.867Z,5.00
2019-04-22T23:33:40.984Z,5.07
2019-04-22T23:36:13.686Z,4.97
2019-04-22T23:38:51.887Z,5.23
2019-04-22T23:41:51.326Z,6.30
2019-04-22T23:44:02.074Z,7.20
2019-04-22T23:46:27.830Z,4.53
2019-04-22T23:49:04.556Z,4.03
2019-04-22T23:51:32.784Z,5.63
2019-04-22T23:54:10.614Z,5.17
2019-04-22T23:56:29.404Z,8.63
2019-04-22T23:59:04.755Z,5.70
